Time;durP1;ratioP1;P1;durP2;ratioP2;P2;SDS_P1;SDS_P2;PMS_P1;PMS_P2;Temp;Humidity;BMP_temperature;BMP_pressure;BME280_temperature;BME280_humidity;BME280_pressure;Samples;Min_cycle;Max_cycle;Signal;HPM_P1;HPM_P2
2022/08/28 00:00:18;;;;;;;9.32;3.20;;;;;;;16.72;57.21;102091.75;5155598;28;20058;-39
2022/08/28 00:02:52;;;;;;;12.38;3.13;;;;;;;16.79;57.02;102091.97;5181139;28;20267;-37
2022/08/28 00:05:28;;;;;;;7.18;3.22;;;;;;;16.87;56.93;102099.16;5154171;28;20077;-41
2022/08/28 00:08:02;;;;;;;9.20;2.85;;;;;;;16.85;56.92;102085.13;5139887;28;21863;-43
2022/08/28 00:10:38;;;;;;;18.70;4.07;;;;;;;16.90;56.71;102089.00;5142579;28;20443;-38
2022/08/28 00:13:17;;;;;;;12.95;3.15;;;;;;;17.00;56.84;102103.06;5164181;28;20547;-38
2022/08/28 00:15:55;;;;;;;11.85;2.88;;;;;;;17.09;56.75;102109.25;5168560;28;20369;-39
2022/08/28 00:18:28;;;;;;;18.35;3.13;;;;;;;17.03;56.62;102094.72;5143470;28;20046;-47
2022/08/28 00:21:01;;;;;;;10.25;3.50;;;;;;;17.12;56.62;102108.09;5144265;28;21897;-38
2022/08/28 00:23:35;;;;;;;8.18;3.08;;;;;;;17.11;56.50;102103.75;5150242;28;20920;-38
2022/08/28 00:26:07;;;;;;;12.65;3.38;;;;;;;17.03;56.81;102086.72;5140403;28;20047;-38
2022/08/28 00:28:39;;;;;;;7.32;2.65;;;;;;;17.08;56.58;102102.25;5163244;28;20051;-39
2022/08/28 00:31:12;;;;;;;12.93;3.22;;;;;;;17.08;56.62;102096.06;5133082;28;20460;-40
2022/08/28 00:33:45;;;;;;;11.40;2.78;;;;;;;17.09;56.69;102095.06;5139756;28;20061;-41
2022/08/28 00:36:18;;;;;;;17.25;4.63;;;;;;;17.10;56.79;102099.44;5155145;28;20044;-38
2022/08/28 00:38:52;;;;;;;;;;;;;;;17.14;56.83;102116.78;5138246;28;20498;-43
2022/08/28 00:41:25;;;;;;;6.18;2.78;;;;;;;17.10;56.89;102104.75;5154969;28;20090;-40
2022/08/28 00:44:10;;;;;;;;;;;;;;;17.16;56.57;102110.28;5158975;28;20402;-39
2022/08/28 00:46:46;;;;;;;10.68;2.85;;;;;;;17.19;56.48;102109.13;5154752;28;20071;-38
2022/08/28 00:49:25;;;;;;;7.90;2.88;;;;;;;17.16;56.40;102115.63;5139570;28;20076;-39
2022/08/28 00:52:06;;;;;;;9.45;3.55;;;;;;;17.16;56.44;102109.47;5146417;28;20044;-37
2022/08/28 00:54:47;;;;;;;9.55;2.88;;;;;;;17.18;56.24;102107.44;5163436;28;20499;-38
2022/08/28 00:57:24;;;;;;;10.07;3.25;;;;;;;17.11;56.59;102098.41;5156053;28;20057;-40
2022/08/28 00:59:58;;;;;;;7.68;2.53;;;;;;;17.13;56.41;102104.44;5154666;28;20450;-37
2022/08/28 01:02:30;;;;;;;6.50;2.83;;;;;;;17.11;56.40;102101.09;5164238;28;20907;-38
2022/08/28 01:05:21;;;;;;;8.90;2.75;;;;;;;17.07;56.54;102105.09;5150789;28;20065;-37
2022/08/28 01:07:56;;;;;;;11.93;3.22;;;;;;;16.96;56.53;102095.53;5161640;28;20048;-38
2022/08/28 01:10:33;;;;;;;8.13;3.50;;;;;;;16.93;56.75;102104.69;5180800;28;20381;-40
2022/08/28 01:13:06;;;;;;;11.68;2.95;;;;;;;16.85;56.74;102102.00;5142138;28;20055;-43
2022/08/28 01:15:41;;;;;;;11.57;2.67;;;;;;;16.74;57.00;102095.06;5135927;28;20077;-39
2022/08/28 01:18:15;;;;;;;9.30;3.85;;;;;;;16.68;56.96;102103.69;5158449;28;20042;-38
2022/08/28 01:20:55;;;;;;;9.82;3.78;;;;;;;16.55;57.26;102101.47;5137613;28;20050;-38
2022/08/28 01:23:50;;;;;;;15.27;3.20;;;;;;;16.53;57.26;102098.13;5149920;28;20122;-42
2022/08/28 01:26:24;;;;;;;9.95;3.30;;;;;;;16.54;57.33;102110.47;5155812;28;20920;-41
2022/08/28 01:28:58;;;;;;;7.55;3.17;;;;;;;16.49;57.30;102106.59;5111209;28;20083;-38
2022/08/28 01:31:32;;;;;;;11.50;2.83;;;;;;;16.56;57.35;102103.13;5131975;28;20133;-38
2022/08/28 01:34:06;;;;;;;9.13;3.92;;;;;;;16.55;57.30;102100.63;5155422;28;20044;-40
2022/08/28 01:36:40;;;;;;;10.13;3.30;;;;;;;16.62;57.29;102098.16;5165116;28;20050;-41
2022/08/28 01:39:18;;;;;;;9.18;3.17;;;;;;;16.64;57.30;102102.34;5153718;28;20382;-41
2022/08/28 01:41:53;;;;;;;12.23;2.63;;;;;;;16.68;57.42;102105.53;5113703;28;20047;-37
2022/08/28 01:44:28;;;;;;;10.35;2.97;;;;;;;16.60;57.07;102083.19;5147797;28;20691;-38
2022/08/28 01:47:00;;;;;;;9.93;3.70;;;;;;;16.70;57.13;102100.91;5136464;28;22147;-39
2022/08/28 01:49:33;;;;;;;9.80;2.63;;;;;;;16.73;56.99;102105.91;5152028;28;20411;-44
2022/08/28 01:52:06;;;;;;;15.35;2.85;;;;;;;16.71;56.88;102094.56;5140852;28;20073;-40
2022/08/28 01:54:41;;;;;;;;;;;;;;;16.85;56.89;102107.34;5139827;28;20035;-40
2022/08/28 01:57:13;;;;;;;8.18;2.80;;;;;;;16.85;56.93;102101.13;5145612;28;19926;-41
2022/08/28 01:59:46;;;;;;;8.93;3.30;;;;;;;16.78;56.98;102090.28;5149627;28;20039;-38
2022/08/28 02:02:19;;;;;;;10.23;4.03;;;;;;;16.77;56.91;102093.94;5135841;28;20038;-40
2022/08/28 02:04:52;;;;;;;9.70;3.13;;;;;;;16.69;56.95;102092.06;5143579;28;20180;-39
2022/08/28 02:07:25;;;;;;;10.55;2.80;;;;;;;16.70;56.92;102098.22;5176102;28;20079;-39
2022/08/28 02:09:59;;;;;;;14.63;3.60;;;;;;;16.70;56.77;102088.38;5170627;28;20050;-38
2022/08/28 02:12:32;;;;;;;12.43;2.85;;;;;;;16.75;56.64;102096.75;5137651;28;24702;-47
2022/08/28 02:15:06;;;;;;;10.75;3.20;;;;;;;16.73;56.74;102090.72;5136792;28;20054;-39
2022/08/28 02:17:39;;;;;;;12.00;2.58;;;;;;;16.81;56.74;102106.78;5137925;28;20417;-38
2022/08/28 02:20:12;;;;;;;11.15;3.30;;;;;;;16.75;56.84;102107.44;5146904;28;20053;-39
2022/08/28 02:22:45;;;;;;;6.88;2.95;;;;;;;16.72;56.81;102101.53;5152289;28;20053;-38
2022/08/28 02:25:19;;;;;;;;;;;;;;;16.78;56.92;102119.63;5153005;28;20051;-39
2022/08/28 02:27:52;;;;;;;7.65;2.58;;;;;;;16.71;56.92;102105.22;5145352;28;19922;-38
2022/08/28 02:30:25;;;;;;;7.85;2.95;;;;;;;16.68;56.83;102100.19;5148703;28;20100;-41
2022/08/28 02:32:58;;;;;;;7.25;2.38;;;;;;;16.73;56.78;102117.41;5143948;28;20061;-38
2022/08/28 02:35:31;;;;;;;12.55;3.65;;;;;;;16.73;56.83;102105.91;5151584;28;20050;-38
2022/08/28 02:38:03;;;;;;;8.30;2.30;;;;;;;16.69;56.64;102102.72;5153191;28;20489;-41
2022/08/28 02:40:38;;;;;;;12.20;3.67;;;;;;;16.80;56.70;102121.13;5147629;28;20042;-46
2022/08/28 02:43:11;;;;;;;11.68;3.17;;;;;;;16.84;56.86;102121.66;5122423;28;20056;-40
2022/08/28 02:45:44;;;;;;;13.93;3.83;;;;;;;16.77;56.54;102113.44;5125533;28;20775;-37
2022/08/28 02:48:16;;;;;;;12.98;3.10;;;;;;;16.66;56.82;102102.19;5158012;28;20081;-37
2022/08/28 02:50:49;;;;;;;13.27;2.95;;;;;;;16.65;56.86;102111.19;5147996;28;20382;-40
2022/08/28 02:53:22;;;;;;;8.35;2.60;;;;;;;16.70;56.85;102116.91;5172287;28;20050;-39
2022/08/28 02:55:56;;;;;;;;;;;;;;;16.70;56.83;102104.38;5152049;28;20078;-40
2022/08/28 02:58:31;;;;;;;8.25;2.85;;;;;;;16.64;56.85;102109.53;5136007;28;20111;-39
2022/08/28 03:01:06;;;;;;;10.38;2.38;;;;;;;16.71;56.58;102119.38;5142615;28;20415;-38
2022/08/28 03:03:40;;;;;;;9.98;3.08;;;;;;;16.74;56.57;102120.91;5129988;28;20113;-37
2022/08/28 03:06:14;;;;;;;10.43;2.70;;;;;;;16.75;56.56;102122.56;5142578;28;20404;-42
2022/08/28 03:08:47;;;;;;;21.83;3.85;;;;;;;16.73;56.62;102129.91;5153852;28;20058;-38
2022/08/28 03:11:22;;;;;;;9.43;2.80;;;;;;;16.74;56.52;102132.41;5149534;28;20497;-41
2022/08/28 03:13:54;;;;;;;9.98;2.65;;;;;;;16.75;56.59;102133.25;5155330;28;20419;-42
2022/08/28 03:16:27;;;;;;;7.90;2.88;;;;;;;16.70;56.68;102123.06;5147372;28;20439;-39
2022/08/28 03:19:00;;;;;;;10.77;3.33;;;;;;;16.76;56.59;102132.31;5160916;28;20046;-39
2022/08/28 03:21:33;;;;;;;8.18;3.33;;;;;;;16.70;56.67;102120.41;5164426;28;20060;-40
2022/08/28 03:24:05;;;;;;;11.88;3.13;;;;;;;16.67;56.67;102128.72;5145434;28;20602;-38
2022/08/28 03:26:39;;;;;;;10.13;3.55;;;;;;;16.70;56.78;102130.22;5156745;28;20054;-38
2022/08/28 03:29:12;;;;;;;9.88;3.60;;;;;;;16.66;56.71;102128.84;5130438;28;20047;-40
2022/08/28 03:31:44;;;;;;;;;;;;;;;16.68;56.67;102137.53;5152931;28;20392;-36
2022/08/28 03:34:17;;;;;;;7.38;3.13;;;;;;;16.49;56.91;102126.09;5147789;28;19925;-42
2022/08/28 03:41:01;;;;;;;8.65;2.50;;;;;;;16.35;57.16;102126.66;5146052;28;22767;-38
2022/08/28 03:43:35;;;;;;;;;;;;;;;16.37;57.25;102135.34;5179734;28;20044;-38
2022/08/28 03:46:09;;;;;;;;;;;;;;;16.34;57.15;102131.16;5163059;28;19951;-37
2022/08/28 03:49:40;;;;;;;13.20;3.15;;;;;;;16.26;57.26;102132.94;5159149;28;20860;-38
2022/08/28 03:55:50;;;;;;;6.88;2.95;;;;;;;16.18;57.54;102138.22;4425442;23;20045;-40
2022/08/28 03:58:24;;;;;;;11.43;3.72;;;;;;;16.10;57.39;102129.19;5146323;28;20054;-43
2022/08/28 04:00:58;;;;;;;12.60;2.90;;;;;;;16.08;57.42;102133.81;5155430;28;20037;-38
2022/08/28 04:03:30;;;;;;;7.97;2.88;;;;;;;16.07;57.50;102132.16;5149728;28;20534;-45
2022/08/28 04:06:03;;;;;;;7.15;2.63;;;;;;;16.11;57.61;102146.00;5143310;28;20060;-39
2022/08/28 04:08:36;;;;;;;14.70;3.30;;;;;;;16.01;57.52;102139.91;5144336;28;20041;-39
2022/08/28 04:11:09;;;;;;;7.88;3.05;;;;;;;15.99;57.65;102137.41;5144655;28;20102;-40
2022/08/28 04:13:42;;;;;;;7.40;2.60;;;;;;;15.99;57.62;102140.06;5149832;28;20041;-39
2022/08/28 04:16:18;;;;;;;14.23;3.08;;;;;;;15.98;57.71;102148.19;5146518;28;20045;-41
2022/08/28 04:18:51;;;;;;;10.63;3.10;;;;;;;15.97;57.66;102143.88;5163741;28;20479;-36
2022/08/28 04:21:26;;;;;;;6.68;2.40;;;;;;;16.02;57.81;102160.25;5146841;28;20041;-39
2022/08/28 04:23:58;;;;;;;5.88;2.47;;;;;;;15.97;57.81;102149.19;5162362;28;20134;-41
2022/08/28 04:26:35;;;;;;;12.98;3.63;;;;;;;15.98;57.84;102165.06;5159352;28;20485;-41
2022/08/28 04:29:08;;;;;;;4.18;1.98;;;;;;;15.87;57.86;102160.78;5148515;28;20049;-41
2022/08/28 04:31:42;;;;;;;13.40;2.75;;;;;;;15.91;57.75;102166.63;5150767;28;20052;-40
2022/08/28 04:34:19;;;;;;;9.00;3.05;;;;;;;15.96;57.84;102171.50;5139304;28;20068;-39
2022/08/28 04:36:52;;;;;;;11.40;2.58;;;;;;;15.88;57.99;102157.09;5148729;28;20038;-38
2022/08/28 04:39:25;;;;;;;6.45;2.50;;;;;;;15.95;57.72;102151.16;5161069;28;20056;-42
2022/08/28 04:45:45;;;;;;;8.50;2.17;;;;;;;16.03;57.74;102165.41;5161095;28;20075;-37
2022/08/28 04:48:20;;;;;;;9.30;2.25;;;;;;;16.02;57.71;102169.06;5133904;28;20080;-38
2022/08/28 04:50:52;;;;;;;8.40;2.70;;;;;;;16.01;57.68;102167.41;5145950;28;20053;-39
2022/08/28 04:53:25;;;;;;;15.20;2.63;;;;;;;16.00;57.81;102171.03;5157884;28;20045;-36
2022/08/28 04:55:59;;;;;;;;;;;;;;;16.06;57.77;102181.09;5154132;28;20180;-37
2022/08/28 04:58:33;;;;;;;8.15;3.25;;;;;;;15.95;57.74;102173.34;5151269;28;20248;-39
2022/08/28 05:01:08;;;;;;;7.65;3.17;;;;;;;15.93;57.57;102162.00;5161293;28;20055;-39
2022/08/28 05:03:43;;;;;;;7.53;2.17;;;;;;;15.93;57.69;102164.66;5144654;28;20054;-38
2022/08/28 05:06:16;;;;;;;9.05;2.80;;;;;;;16.03;57.74;102181.41;5135355;28;20061;-38
2022/08/28 05:08:49;;;;;;;7.78;1.95;;;;;;;15.94;57.79;102176.16;5172613;28;20491;-36
2022/08/28 05:11:23;;;;;;;;;;;;;;;16.03;57.72;102192.06;5147740;28;20054;-38
2022/08/28 05:13:56;;;;;;;6.68;2.47;;;;;;;15.96;57.69;102175.00;5153884;28;20329;-41
2022/08/28 05:16:29;;;;;;;5.50;2.00;;;;;;;16.04;57.52;102182.22;5159850;28;20441;-37
2022/08/28 05:19:03;;;;;;;9.43;2.60;;;;;;;16.14;57.27;102175.00;5156459;28;21781;-39
2022/08/28 05:21:36;;;;;;;4.40;2.08;;;;;;;16.23;57.09;102181.22;5158805;28;20068;-42
2022/08/28 05:24:11;;;;;;;7.45;2.55;;;;;;;16.36;57.01;102187.00;5152457;28;20046;-43
2022/08/28 05:26:44;;;;;;;8.95;2.20;;;;;;;16.47;56.82;102197.41;5158214;28;20115;-39
2022/08/28 05:29:17;;;;;;;8.80;2.75;;;;;;;16.51;56.54;102180.13;5156716;28;20127;-39
2022/08/28 05:31:50;;;;;;;10.07;3.92;;;;;;;16.72;56.29;102187.78;5150983;28;20423;-40
2022/08/28 05:34:24;;;;;;;;;;;;;;;16.92;56.25;102196.41;5162589;28;20459;-42
2022/08/28 05:36:56;;;;;;;;;;;;;;;17.05;55.87;102196.81;5157142;28;19921;-38
2022/08/28 05:39:29;;;;;;;13.07;4.78;;;;;;;16.97;55.91;102188.78;5146100;28;19948;-39
2022/08/28 05:42:02;;;;;;;9.05;2.58;;;;;;;16.97;55.63;102183.44;5165947;28;20457;-38
2022/08/28 05:44:34;;;;;;;8.10;2.42;;;;;;;17.15;55.81;102185.19;5154743;28;20051;-40
2022/08/28 05:47:07;;;;;;;15.23;2.78;;;;;;;17.22;55.46;102180.88;5137722;28;20060;-40
2022/08/28 05:49:41;;;;;;;6.95;3.03;;;;;;;17.29;55.44;102174.72;5147124;28;20049;-38
2022/08/28 05:52:14;;;;;;;14.00;2.15;;;;;;;17.40;55.24;102178.09;5139223;28;20054;-39
2022/08/28 05:54:47;;;;;;;8.35;3.47;;;;;;;17.56;54.97;102188.00;5149014;28;20064;-39
2022/08/28 05:57:20;;;;;;;5.50;2.22;;;;;;;17.64;55.12;102193.38;5152557;28;20168;-39
2022/08/28 05:59:53;;;;;;;6.53;2.28;;;;;;;17.76;54.61;102181.38;5152542;28;20044;-39
2022/08/28 06:02:44;;;;;;;13.30;2.67;;;;;;;18.14;54.38;102208.50;5141976;28;20042;-38
2022/08/28 06:05:18;;;;;;;10.18;2.78;;;;;;;18.29;54.20;102196.13;5143946;28;20111;-41
2022/08/28 06:08:09;;;;;;;14.93;2.53;;;;;;;18.55;54.10;102189.75;5136745;28;20069;-43
2022/08/28 06:10:44;;;;;;;12.48;2.70;;;;;;;18.74;53.75;102191.28;5140279;28;20135;-36
2022/08/28 06:13:17;;;;;;;9.30;3.83;;;;;;;19.07;53.43;102202.72;5151509;28;20068;-38
2022/08/28 06:15:50;;;;;;;11.90;2.92;;;;;;;19.20;53.36;102195.00;5146235;28;20944;-43
2022/08/28 06:18:23;;;;;;;7.50;1.98;;;;;;;19.31;53.10;102189.22;5144357;28;20049;-39
2022/08/28 06:21:00;;;;;;;;;;;;;;;19.52;52.94;102203.88;5141928;28;20486;-38
2022/08/28 06:23:33;;;;;;;4.45;1.50;;;;;;;19.49;53.00;102210.41;5138660;28;20275;-38
2022/08/28 06:26:07;;;;;;;5.30;1.77;;;;;;;19.50;52.86;102220.13;5149414;28;20049;-41
2022/08/28 06:28:39;;;;;;;10.13;2.20;;;;;;;19.53;53.09;102209.06;5151894;28;20045;-39
2022/08/28 06:31:12;;;;;;;6.68;1.73;;;;;;;20.63;52.55;102208.81;5143178;28;20056;-34
2022/08/28 06:33:45;;;;;;;5.95;2.17;;;;;;;23.33;49.67;102210.06;5139012;28;20042;-38
2022/08/28 06:36:19;;;;;;;7.65;1.88;;;;;;;24.94;47.30;102209.22;5147567;28;20052;-39
2022/08/28 06:38:53;;;;;;;8.02;1.70;;;;;;;24.99;46.84;102206.69;5139662;28;20112;-39
2022/08/28 06:41:27;;;;;;;7.85;1.95;;;;;;;24.41;47.44;102223.59;5145872;28;20449;-41
2022/08/28 06:44:00;;;;;;;8.82;2.45;;;;;;;23.72;48.29;102230.13;5156286;28;20049;-42
2022/08/28 06:46:35;;;;;;;12.75;2.53;;;;;;;23.02;48.44;102216.75;5149107;28;20076;-40
2022/08/28 06:49:09;;;;;;;8.25;1.90;;;;;;;23.10;48.51;102225.72;5154678;28;20041;-38
2022/08/28 06:51:43;;;;;;;6.28;1.50;;;;;;;23.18;47.98;102223.69;5141845;28;20045;-37
2022/08/28 06:54:16;;;;;;;5.13;2.47;;;;;;;22.97;47.82;102216.53;5146593;28;20514;-38
2022/08/28 06:56:49;;;;;;;9.23;1.67;;;;;;;22.88;47.30;102209.59;5141157;28;20041;-41
2022/08/28 06:59:21;;;;;;;4.38;1.90;;;;;;;23.18;46.72;102218.28;5150699;28;20057;-40
2022/08/28 07:01:54;;;;;;;8.45;2.10;;;;;;;23.51;46.61;102206.81;5150037;28;20072;-40
2022/08/28 07:04:27;;;;;;;7.03;2.20;;;;;;;25.32;44.39;102203.06;5150116;28;20431;-40
2022/08/28 07:07:01;;;;;;;10.85;2.22;;;;;;;27.33;42.94;102226.44;5142204;28;20441;-40
2022/08/28 07:09:34;;;;;;;4.93;1.60;;;;;;;29.64;40.34;102220.00;5142590;28;20046;-37
2022/08/28 07:12:07;;;;;;;;;;;;;;;30.57;38.97;102225.91;5142650;28;20042;-40
2022/08/28 07:14:40;;;;;;;11.10;1.98;;;;;;;30.05;39.27;102232.44;5141841;28;20378;-39
2022/08/28 07:17:12;;;;;;;5.65;2.20;;;;;;;29.48;39.66;102215.28;5141510;28;20045;-38
2022/08/28 07:19:45;;;;;;;5.72;1.50;;;;;;;29.27;39.54;102220.34;5144481;28;20041;-44
2022/08/28 07:22:20;;;;;;;7.80;1.83;;;;;;;30.25;37.40;102231.94;5141598;28;20054;-41
2022/08/28 07:24:53;;;;;;;5.95;2.20;;;;;;;31.32;36.90;102234.53;5140572;28;20521;-39
2022/08/28 07:27:26;;;;;;;9.70;1.90;;;;;;;32.59;35.80;102233.00;5153855;28;20427;-40
2022/08/28 07:30:00;;;;;;;7.57;2.17;;;;;;;34.32;34.31;102231.03;5140462;28;20072;-39
2022/08/28 07:32:35;;;;;;;7.05;1.83;;;;;;;35.97;32.46;102227.25;5141871;28;20061;-42
2022/08/28 07:35:09;;;;;;;6.93;2.05;;;;;;;37.25;30.89;102228.63;5145159;28;20130;-42
2022/08/28 07:37:43;;;;;;;5.95;1.65;;;;;;;38.22;29.80;102232.59;5133966;28;20477;-43
2022/08/28 07:40:17;;;;;;;7.90;1.42;;;;;;;38.20;27.91;102243.16;5129124;28;20497;-39
2022/08/28 07:45:40;;;;;;;8.35;1.85;;;;;;;36.59;28.42;102242.09;4790754;28;306492;-40
2022/08/28 07:48:13;;;;;;;5.28;2.00;;;;;;;35.24;29.43;102242.53;5158421;28;20051;-40
2022/08/28 07:50:46;;;;;;;9.90;2.58;;;;;;;32.81;30.77;102245.72;5168914;28;20038;-43
2022/08/28 07:53:20;;;;;;;7.45;1.98;;;;;;;30.62;33.35;102236.88;5164702;28;20041;-38
2022/08/28 07:59:02;;;;;;;3.33;1.70;;;;;;;29.89;33.79;102255.03;5213176;27;20891;-37
2022/08/28 08:01:39;;;;;;;7.35;2.42;;;;;;;28.86;34.96;102262.94;5240525;27;20441;-38
2022/08/28 08:04:14;;;;;;;14.50;3.10;;;;;;;27.66;36.03;102246.91;5176003;27;20052;-42
2022/08/28 08:06:47;;;;;;;5.18;2.17;;;;;;;27.24;36.85;102257.66;5224858;27;20099;-37
2022/08/28 08:09:20;;;;;;;;;;;;;;;29.06;34.99;102248.19;5240576;28;20093;-39
2022/08/28 08:11:53;;;;;;;6.15;1.25;;;;;;;30.72;32.60;102247.09;5227296;28;19920;-38
2022/08/28 08:14:27;;;;;;;3.25;1.42;;;;;;;32.06;31.67;102253.91;5231149;27;20047;-42
2022/08/28 08:17:03;;;;;;;4.65;1.52;;;;;;;32.62;30.95;102255.47;5231285;28;20058;-42
2022/08/28 08:19:36;;;;;;;12.95;2.47;;;;;;;32.61;29.86;102246.41;5231173;27;20039;-39
2022/08/28 08:22:09;;;;;;;10.57;2.65;;;;;;;32.55;29.36;102261.13;5228397;27;21426;-42
2022/08/28 08:24:42;;;;;;;7.57;1.67;;;;;;;32.70;29.29;102265.88;5205678;28;20519;-32
2022/08/28 08:27:15;;;;;;;6.60;1.85;;;;;;;33.32;29.07;102248.69;5231782;27;20071;-40
2022/08/28 08:29:49;;;;;;;6.88;1.90;;;;;;;34.19;28.41;102252.44;5231067;28;20133;-44
2022/08/28 08:32:22;;;;;;;7.70;1.55;;;;;;;34.74;28.10;102251.81;5230444;27;20084;-41
2022/08/28 08:34:56;;;;;;;7.53;2.10;;;;;;;35.34;28.00;102259.00;5235237;27;20056;-37
2022/08/28 08:37:28;;;;;;;6.10;2.35;;;;;;;35.15;26.30;102255.22;5225491;27;20052;-39
2022/08/28 08:40:01;;;;;;;7.18;1.92;;;;;;;34.30;27.17;102261.44;5008647;27;20589;-40
2022/08/28 08:42:37;;;;;;;5.20;1.40;;;;;;;34.54;27.01;102247.19;5059901;28;20490;-38
2022/08/28 08:45:14;;;;;;;8.18;2.10;;;;;;;34.94;27.07;102259.16;5212042;28;20464;-40
2022/08/28 08:47:50;;;;;;;5.03;1.73;;;;;;;35.13;26.40;102256.63;5164928;28;20401;-40
2022/08/28 08:50:26;;;;;;;4.25;1.77;;;;;;;35.26;26.45;102262.31;5210885;27;20055;-41
2022/08/28 08:53:23;;;;;;;7.10;1.75;;;;;;;35.29;25.89;102261.75;5213722;27;20457;-34
2022/08/28 08:55:58;;;;;;;7.30;1.50;;;;;;;35.10;26.08;102261.56;5215578;27;20484;-39
2022/08/28 08:58:36;;;;;;;7.18;2.00;;;;;;;34.85;25.35;102259.72;5207021;28;20040;-41
2022/08/28 09:01:18;;;;;;;6.13;2.00;;;;;;;33.36;26.47;102260.75;5211386;28;20409;-38
2022/08/28 09:03:59;;;;;;;5.57;1.52;;;;;;;32.41;27.03;102241.59;5208500;28;20066;-40
2022/08/28 09:06:41;;;;;;;5.20;1.40;;;;;;;32.44;27.10;102263.00;5205808;28;20530;-40
2022/08/28 09:09:25;;;;;;;7.72;1.40;;;;;;;31.67;27.83;102248.59;5209380;28;20492;-40
2022/08/28 09:12:02;;;;;;;9.05;1.70;;;;;;;29.86;29.75;102240.00;5197005;28;20048;-40
2022/08/28 09:14:44;;;;;;;5.00;1.42;;;;;;;29.52;29.97;102244.50;5189538;28;20183;-39
2022/08/28 09:17:23;;;;;;;5.82;1.50;;;;;;;29.64;29.85;102248.03;5196967;28;20421;-42
2022/08/28 09:19:55;;;;;;;6.95;1.80;;;;;;;28.98;30.69;102248.53;5202260;28;20075;-39
2022/08/28 09:22:28;;;;;;;;;;;;;;;28.26;31.76;102268.59;5200096;28;20072;-39
2022/08/28 09:25:00;;;;;;;4.63;1.83;;;;;;;26.82;34.22;102252.00;5181106;28;19921;-39
2022/08/28 09:27:43;;;;;;;;;;;;;;;25.59;36.45;102269.53;5198121;28;20629;-41
2022/08/28 09:30:18;;;;;;;7.18;1.70;;;;;;;25.32;36.83;102262.56;5197181;28;20327;-40
2022/08/28 09:33:00;;;;;;;4.13;1.77;;;;;;;25.81;35.97;102261.09;5189475;28;20053;-39
2022/08/28 09:35:36;;;;;;;10.07;1.73;;;;;;;25.65;35.73;102257.84;5199542;28;20057;-38
2022/08/28 09:38:20;;;;;;;9.55;1.92;;;;;;;25.57;36.01;102263.50;5198514;28;20981;-41
2022/08/28 09:43:59;;;;;;;3.00;1.50;;;;;;;25.42;36.26;102246.69;5198884;27;20106;-43
2022/08/28 09:46:33;;;;;;;3.95;1.60;;;;;;;25.66;36.09;102247.84;5185743;28;20436;-42
2022/08/28 09:49:13;;;;;;;4.80;1.35;;;;;;;26.17;35.29;102258.59;5197923;28;20049;-43
2022/08/28 09:51:45;;;;;;;5.90;1.80;;;;;;;25.97;35.67;102261.44;5199150;28;20463;-41
2022/08/28 09:54:25;;;;;;;4.03;1.42;;;;;;;26.16;35.47;102254.22;5198480;28;21321;-41
2022/08/28 09:56:58;;;;;;;5.85;1.95;;;;;;;26.33;34.93;102259.94;5197874;28;20067;-44
2022/08/28 09:59:31;;;;;;;9.23;1.60;;;;;;;26.34;34.73;102267.00;5148087;28;20042;-42
2022/08/28 10:02:23;;;;;;;6.68;1.60;;;;;;;26.25;34.35;102248.53;5151878;28;20045;-42
2022/08/28 10:05:06;;;;;;;10.20;1.70;;;;;;;25.70;34.74;102266.13;5154869;28;20129;-41
2022/08/28 10:07:48;;;;;;;4.22;1.73;;;;;;;25.18;35.57;102262.63;5144438;28;20434;-44
2022/08/28 10:10:30;;;;;;;2.88;1.20;;;;;;;24.99;36.09;102255.34;5156891;28;20525;-42
2022/08/28 10:13:10;;;;;;;4.18;1.70;;;;;;;25.37;36.09;102257.34;5150272;28;20049;-42
2022/08/28 10:16:08;;;;;;;8.40;2.13;;;;;;;25.61;35.77;102256.63;5155037;28;20477;-38
2022/08/28 10:18:46;;;;;;;3.30;1.88;;;;;;;25.64;35.75;102256.19;5145683;28;20068;-40
2022/08/28 10:21:26;;;;;;;4.65;1.25;;;;;;;25.07;36.80;102236.19;5148871;28;20498;-40
2022/08/28 10:24:20;;;;;;;6.20;1.73;;;;;;;24.96;38.11;102247.66;5142420;28;20052;-34
2022/08/28 10:27:04;;;;;;;5.32;1.67;;;;;;;25.24;37.78;102253.66;5143946;28;20076;-39
2022/08/28 10:29:51;;;;;;;4.07;1.63;;;;;;;25.61;37.47;102262.03;5145375;28;20116;-40
2022/08/28 10:33:00;;;;;;;10.68;2.13;;;;;;;26.01;37.70;102259.13;5157874;28;20064;-39
2022/08/28 10:35:46;;;;;;;4.78;1.58;;;;;;;26.39;37.09;102263.66;5151887;28;20510;-41
2022/08/28 10:38:31;;;;;;;5.50;1.80;;;;;;;26.67;35.92;102257.81;5150388;28;20432;-43
2022/08/28 10:41:08;;;;;;;4.40;1.40;;;;;;;26.06;36.24;102264.72;5150452;28;20046;-39
2022/08/28 10:43:46;;;;;;;4.28;2.38;;;;;;;25.55;36.83;102271.00;5153613;28;20498;-47
2022/08/28 10:46:23;;;;;;;3.47;1.10;;;;;;;25.42;36.92;102257.53;5152358;28;20144;-40
2022/08/28 10:49:00;;;;;;;7.28;1.65;;;;;;;25.45;36.67;102263.31;5156924;28;20045;-38
2022/08/28 10:51:39;;;;;;;2.47;1.25;;;;;;;25.79;36.19;102247.78;5157818;28;20418;-38
2022/08/28 10:54:28;;;;;;;3.28;1.27;;;;;;;25.80;35.79;102252.16;5149332;28;20439;-40
2022/08/28 10:57:07;;;;;;;7.53;2.03;;;;;;;26.22;35.37;102257.94;5151178;28;20133;-38
2022/08/28 10:59:41;;;;;;;3.45;1.83;;;;;;;26.30;35.08;102254.13;5196576;28;20183;-42
2022/08/28 11:02:16;;;;;;;2.72;1.10;;;;;;;26.17;35.87;102266.72;5196070;28;20048;-42
2022/08/28 11:04:49;;;;;;;4.22;1.98;;;;;;;25.69;37.26;102259.06;5196317;28;22168;-41
2022/08/28 11:07:30;;;;;;;6.10;1.40;;;;;;;25.60;38.25;102254.94;5198849;28;20373;-41
2022/08/28 11:10:47;;;;;;;11.95;1.48;;;;;;;25.39;37.38;102264.19;5189948;28;20117;-42
2022/08/28 11:13:51;;;;;;;6.15;1.60;;;;;;;25.56;37.63;102269.13;5185562;28;20060;-42
2022/08/28 11:16:36;;;;;;;4.65;1.52;;;;;;;26.10;37.20;102265.94;5192845;28;20044;-40
2022/08/28 11:19:37;;;;;;;5.40;1.27;;;;;;;25.71;35.86;102262.41;5190342;28;20585;-43
2022/08/28 11:22:14;;;;;;;9.95;2.95;;;;;;;25.00;37.21;102276.75;5186390;28;20051;-39
2022/08/28 11:24:58;;;;;;;6.07;1.50;;;;;;;24.63;38.08;102270.16;5185836;28;20409;-41
2022/08/28 11:27:35;;;;;;;1.67;1.20;;;;;;;24.82;39.18;102282.81;5190505;28;20048;-38
2022/08/28 11:30:35;;;;;;;6.10;2.13;;;;;;;24.84;38.96;102279.91;5189104;28;20523;-47
2022/08/28 11:33:39;;;;;;;3.67;1.55;;;;;;;24.68;39.23;102275.75;5180404;28;20050;-40
2022/08/28 11:36:33;;;;;;;3.70;1.38;;;;;;;24.53;39.38;102286.78;5191008;28;20504;-41
2022/08/28 11:39:20;;;;;;;8.15;1.58;;;;;;;24.31;38.98;102288.81;5187942;28;20397;-42
2022/08/28 11:42:38;;;;;;;12.52;1.92;;;;;;;24.11;39.16;102279.84;5187116;28;20152;-43
2022/08/28 11:45:20;;;;;;;5.50;1.65;;;;;;;24.22;39.49;102289.19;5185372;28;20126;-41
2022/08/28 11:47:55;;;;;;;2.03;1.00;;;;;;;24.38;40.26;102278.84;5187975;28;20056;-42
2022/08/28 11:50:32;;;;;;;12.10;1.30;;;;;;;24.52;39.96;102289.69;5183636;28;20068;-40
2022/08/28 11:53:47;;;;;;;6.93;1.75;;;;;;;24.10;38.33;102279.03;5190114;28;20112;-39
2022/08/28 11:56:54;;;;;;;10.98;2.40;;;;;;;23.59;38.62;102284.00;5190098;28;21780;-38
2022/08/28 12:00:02;;;;;;;8.63;1.70;;;;;;;23.25;39.45;102280.31;5187156;28;20041;-37
2022/08/28 12:03:13;;;;;;;4.05;1.30;;;;;;;23.40;39.70;102281.03;5182987;28;20477;-40
2022/08/28 12:05:48;;;;;;;5.10;2.25;;;;;;;23.53;39.28;102263.25;5186195;28;20401;-42
2022/08/28 12:09:10;;;;;;;5.20;2.08;;;;;;;24.01;39.44;102274.84;5186624;28;20554;-42
2022/08/28 12:12:01;;;;;;;3.63;1.27;;;;;;;24.04;39.51;102262.81;5110045;28;20370;-42
2022/08/28 12:15:09;;;;;;;5.90;1.98;;;;;;;24.16;39.01;102269.28;5177722;28;20111;-39
2022/08/28 12:17:49;;;;;;;2.50;0.90;;;;;;;24.51;39.78;102258.31;5185701;28;20400;-41
2022/08/28 12:20:31;;;;;;;3.45;1.88;;;;;;;25.04;39.13;102255.53;5197991;28;20045;-42
2022/08/28 12:23:39;;;;;;;4.05;1.55;;;;;;;25.41;37.07;102272.09;5196375;28;20098;-43
2022/08/28 12:26:25;;;;;;;2.75;1.35;;;;;;;25.02;37.16;102271.97;5192309;28;20441;-41
2022/08/28 12:29:00;;;;;;;3.60;1.45;;;;;;;24.68;37.00;102275.75;5185489;28;20488;-41
2022/08/28 12:32:11;;;;;;;3.75;1.55;;;;;;;24.17;37.84;102270.94;5177018;28;20049;-44
2022/08/28 12:34:49;;;;;;;4.68;1.40;;;;;;;24.21;38.58;102266.78;5192242;28;20484;-39